Time;durP1;ratioP1;P1;durP2;ratioP2;P2;SDS_P1;SDS_P2;PMS_P1;PMS_P2;Temp;Humidity;BMP_temperature;BMP_pressure;BME280_temperature;BME280_humidity;BME280_pressure;Samples;Min_cycle;Max_cycle;Signal;HPM_P1;HPM_P2
2024/03/25 00:00:44;;;;;;;0.73;0.20;;;;;;;;;;5154101;27;20425;-61
2024/03/25 00:03:10;;;;;;;0.52;0.32;;;;;;;;;;5154416;27;20026;-61
2024/03/25 00:05:36;;;;;;;1.45;0.32;;;;;;;;;;5153923;27;20018;-61
2024/03/25 00:08:02;;;;;;;0.20;0.10;;;;;;;;;;5131176;27;20361;-61
2024/03/25 00:10:28;;;;;;;0.45;0.20;;;;;;;;;;5151170;27;20023;-61
2024/03/25 00:12:56;;;;;;;0.52;0.10;;;;;;;;;;5154103;27;20023;-61
2024/03/25 00:15:23;;;;;;;1.20;0.10;;;;;;;;;;5135013;27;20022;-62
2024/03/25 00:17:49;;;;;;;0.98;0.38;;;;;;;;;;5147347;27;20030;-61
2024/03/25 00:20:15;;;;;;;0.73;0.40;;;;;;;;;;5144753;27;20111;-61
2024/03/25 00:22:42;;;;;;;0.40;0.20;;;;;;;;;;5148842;27;20054;-62
2024/03/25 00:25:09;;;;;;;0.10;0.10;;;;;;;;;;5153303;27;20120;-61
2024/03/25 00:27:35;;;;;;;0.55;0.22;;;;;;;;;;5150242;27;20031;-61
2024/03/25 00:30:10;;;;;;;0.15;0.10;;;;;;;;;;5147631;27;20023;-61
2024/03/25 00:32:36;;;;;;;0.15;0.15;;;;;;;;;;5146435;27;20441;-61
2024/03/25 00:35:02;;;;;;;0.90;0.35;;;;;;;;;;5118667;27;20136;-61
2024/03/25 00:37:28;;;;;;;0.95;0.10;;;;;;;;;;5146803;27;20054;-61
2024/03/25 00:39:54;;;;;;;0.52;0.10;;;;;;;;;;5150218;27;20035;-61
2024/03/25 00:42:20;;;;;;;0.68;0.20;;;;;;;;;;5153300;27;20042;-62
2024/03/25 00:44:46;;;;;;;0.93;0.10;;;;;;;;;;5141734;27;20544;-61
2024/03/25 00:47:12;;;;;;;0.00;0.00;;;;;;;;;;5150983;27;20031;-61
2024/03/25 00:49:38;;;;;;;0.63;0.30;;;;;;;;;;5153139;27;20387;-61
2024/03/25 00:52:05;;;;;;;2.70;0.20;;;;;;;;;;5152987;27;20375;-61
2024/03/25 00:54:31;;;;;;;0.38;0.10;;;;;;;;;;5152571;27;20041;-62
2024/03/25 00:56:57;;;;;;;0.40;0.10;;;;;;;;;;5152914;27;20030;-62
2024/03/25 00:59:23;;;;;;;0.50;0.20;;;;;;;;;;5146262;27;20369;-61
2024/03/25 01:01:49;;;;;;;0.08;0.08;;;;;;;;;;5153094;27;20031;-61
2024/03/25 01:04:15;;;;;;;1.08;0.08;;;;;;;;;;5152847;27;20030;-62
2024/03/25 01:06:41;;;;;;;0.88;0.20;;;;;;;;;;5152038;27;20045;-62
2024/03/25 01:09:10;;;;;;;0.40;0.10;;;;;;;;;;5159997;27;20044;-62
2024/03/25 01:11:36;;;;;;;0.90;0.30;;;;;;;;;;5140936;27;20075;-61
2024/03/25 01:14:02;;;;;;;0.10;0.10;;;;;;;;;;5159932;27;20580;-61
2024/03/25 01:16:28;;;;;;;0.22;0.13;;;;;;;;;;5135269;27;20039;-61
2024/03/25 01:18:54;;;;;;;1.48;0.25;;;;;;;;;;5141031;27;20030;-61
2024/03/25 01:21:20;;;;;;;0.38;0.28;;;;;;;;;;5159373;27;20149;-61
2024/03/25 01:23:46;;;;;;;0.47;0.10;;;;;;;;;;5159787;27;20522;-62
2024/03/25 01:26:12;;;;;;;0.35;0.13;;;;;;;;;;5159502;27;20042;-61
2024/03/25 01:28:38;;;;;;;1.00;0.30;;;;;;;;;;5159948;27;20574;-62
2024/03/25 01:31:04;;;;;;;0.25;0.10;;;;;;;;;;5154859;27;20019;-62
2024/03/25 01:33:30;;;;;;;0.40;0.20;;;;;;;;;;5156294;27;20391;-62
2024/03/25 01:35:56;;;;;;;0.22;0.20;;;;;;;;;;5153906;27;20030;-62
2024/03/25 01:38:23;;;;;;;0.20;0.10;;;;;;;;;;5159486;27;20031;-59
2024/03/25 01:40:49;;;;;;;0.30;0.20;;;;;;;;;;5153354;27;20023;-60
2024/03/25 01:43:15;;;;;;;0.20;0.10;;;;;;;;;;5151425;27;20547;-60
2024/03/25 01:45:42;;;;;;;0.82;0.10;;;;;;;;;;5158327;27;20095;-60
2024/03/25 01:57:38;;;;;;;1.05;0.20;;;;;;;;;;5156722;27;20107;-61
2024/03/25 02:00:06;;;;;;;0.43;0.10;;;;;;;;;;5158177;27;20051;-61
2024/03/25 02:02:33;;;;;;;0.95;0.13;;;;;;;;;;5160380;27;20026;-61
2024/03/25 02:05:00;;;;;;;0.45;0.30;;;;;;;;;;5140779;27;20031;-61
2024/03/25 02:07:26;;;;;;;0.40;0.10;;;;;;;;;;5150042;27;20023;-61
2024/03/25 02:09:53;;;;;;;0.73;0.22;;;;;;;;;;5156250;27;20430;-62
2024/03/25 02:12:19;;;;;;;0.38;0.10;;;;;;;;;;5159906;27;20524;-61
2024/03/25 02:14:45;;;;;;;0.35;0.20;;;;;;;;;;5151648;27;20026;-62
2024/03/25 02:17:11;;;;;;;0.75;0.10;;;;;;;;;;5152145;27;20027;-61
2024/03/25 02:19:38;;;;;;;0.68;0.20;;;;;;;;;;5144290;27;20037;-61
2024/03/25 02:22:05;;;;;;;0.20;0.20;;;;;;;;;;5155990;27;20129;-61
2024/03/25 02:24:32;;;;;;;1.08;0.20;;;;;;;;;;5150362;27;20081;-61
2024/03/25 02:27:19;;;;;;;0.13;0.10;;;;;;;;;;5149135;27;20425;-61
2024/03/25 02:29:45;;;;;;;0.20;0.15;;;;;;;;;;5143133;27;20023;-61
2024/03/25 02:32:12;;;;;;;0.45;0.20;;;;;;;;;;5155586;27;20052;-60
2024/03/25 02:34:39;;;;;;;0.32;0.20;;;;;;;;;;5141066;27;20033;-61
2024/03/25 02:37:05;;;;;;;0.40;0.20;;;;;;;;;;5155052;27;20029;-61
2024/03/25 02:39:31;;;;;;;0.65;0.25;;;;;;;;;;5146722;27;20435;-61
2024/03/25 02:41:57;;;;;;;0.10;0.10;;;;;;;;;;5155615;27;20026;-61
2024/03/25 02:44:24;;;;;;;1.63;0.10;;;;;;;;;;5140600;27;20107;-61
2024/03/25 02:46:50;;;;;;;1.52;0.20;;;;;;;;;;5153591;27;20030;-61
2024/03/25 02:49:16;;;;;;;0.30;0.20;;;;;;;;;;5149699;27;20033;-61
2024/03/25 02:51:42;;;;;;;2.65;0.20;;;;;;;;;;5151581;27;20096;-61
2024/03/25 02:54:08;;;;;;;0.75;0.20;;;;;;;;;;5151294;27;20061;-61
2024/03/25 02:56:37;;;;;;;0.30;0.20;;;;;;;;;;5152930;27;20436;-61
2024/03/25 02:59:03;;;;;;;0.40;0.20;;;;;;;;;;5128217;27;20080;-61
2024/03/25 03:01:29;;;;;;;0.95;0.10;;;;;;;;;;5154761;27;20042;-61
2024/03/25 03:03:55;;;;;;;1.83;0.20;;;;;;;;;;5154629;27;20079;-61
2024/03/25 03:06:22;;;;;;;0.82;0.43;;;;;;;;;;5155029;27;20543;-61
2024/03/25 03:08:48;;;;;;;0.15;0.10;;;;;;;;;;5155192;27;20053;-61
2024/03/25 03:11:14;;;;;;;0.63;0.20;;;;;;;;;;5154350;27;20105;-61
2024/03/25 03:13:40;;;;;;;0.63;0.25;;;;;;;;;;5154873;27;20434;-61
2024/03/25 03:16:06;;;;;;;0.28;0.15;;;;;;;;;;5151116;27;20027;-61
2024/03/25 03:18:32;;;;;;;0.20;0.20;;;;;;;;;;5139766;27;20076;-60
2024/03/25 03:20:58;;;;;;;1.38;0.20;;;;;;;;;;5152196;27;20026;-60
2024/03/25 03:23:24;;;;;;;0.52;0.20;;;;;;;;;;5154387;27;20025;-61
2024/03/25 03:25:50;;;;;;;0.52;0.20;;;;;;;;;;5153299;27;20101;-61
2024/03/25 03:28:17;;;;;;;0.57;0.13;;;;;;;;;;5142609;27;20455;-61
2024/03/25 03:30:44;;;;;;;0.35;0.20;;;;;;;;;;5154460;27;20105;-61
2024/03/25 03:33:10;;;;;;;0.52;0.10;;;;;;;;;;5154456;27;20042;-61
2024/03/25 03:35:36;;;;;;;0.50;0.20;;;;;;;;;;5153887;27;20053;-61
2024/03/25 03:38:02;;;;;;;2.00;0.13;;;;;;;;;;5152983;27;20015;-61
2024/03/25 03:40:32;;;;;;;0.30;0.25;;;;;;;;;;5154468;27;20505;-61
2024/03/25 03:42:58;;;;;;;0.17;0.10;;;;;;;;;;5153650;27;20534;-62
2024/03/25 03:45:25;;;;;;;1.15;0.38;;;;;;;;;;5154509;27;20160;-61
2024/03/25 03:48:09;;;;;;;1.70;0.13;;;;;;;;;;5150987;27;20038;-61
2024/03/25 03:50:35;;;;;;;0.88;0.32;;;;;;;;;;5154481;27;20019;-61
2024/03/25 03:53:01;;;;;;;1.17;0.65;;;;;;;;;;5135246;27;20037;-61
2024/03/25 03:55:26;;;;;;;1.10;0.20;;;;;;;;;;5154110;27;20105;-61
2024/03/25 03:57:52;;;;;;;1.13;0.30;;;;;;;;;;5153540;27;20026;-61
2024/03/25 04:00:18;;;;;;;0.40;0.15;;;;;;;;;;5154115;27;20022;-61
2024/03/25 04:02:44;;;;;;;1.00;0.40;;;;;;;;;;5131144;27;20448;-61
2024/03/25 04:05:10;;;;;;;2.15;0.38;;;;;;;;;;5154071;27;20017;-61
2024/03/25 04:07:37;;;;;;;0.90;0.20;;;;;;;;;;5151580;27;20152;-61
2024/03/25 04:10:03;;;;;;;0.98;0.10;;;;;;;;;;5153604;27;20160;-61
2024/03/25 04:12:29;;;;;;;0.40;0.40;;;;;;;;;;5131130;27;20088;-61
2024/03/25 04:14:56;;;;;;;0.50;0.20;;;;;;;;;;5146071;27;20019;-61
2024/03/25 04:17:22;;;;;;;1.30;0.20;;;;;;;;;;5143307;27;20038;-61
2024/03/25 04:19:51;;;;;;;0.77;0.17;;;;;;;;;;5134557;27;20023;-61
2024/03/25 04:22:17;;;;;;;18.05;1.40;;;;;;;;;;5153071;27;20037;-61
2024/03/25 04:24:44;;;;;;;1.65;0.20;;;;;;;;;;5153774;27;20018;-61
2024/03/25 04:27:10;;;;;;;2.53;0.30;;;;;;;;;;5140617;27;20027;-61
2024/03/25 04:29:36;;;;;;;0.70;0.30;;;;;;;;;;5153674;27;20023;-61
2024/03/25 04:32:02;;;;;;;1.95;0.55;;;;;;;;;;5153865;27;20054;-61
2024/03/25 04:34:29;;;;;;;1.95;0.38;;;;;;;;;;5153118;27;20015;-61
2024/03/25 04:36:55;;;;;;;0.57;0.30;;;;;;;;;;5133973;27;20034;-61
2024/03/25 04:39:22;;;;;;;0.40;0.20;;;;;;;;;;5146852;27;20030;-61
2024/03/25 04:41:48;;;;;;;1.05;0.20;;;;;;;;;;5152694;27;20031;-60
2024/03/25 04:44:14;;;;;;;0.93;0.20;;;;;;;;;;5153578;27;20018;-61
2024/03/25 04:46:40;;;;;;;0.52;0.15;;;;;;;;;;5152949;27;20035;-61
2024/03/25 04:49:06;;;;;;;0.20;0.10;;;;;;;;;;5141748;27;20061;-61
2024/03/25 04:51:32;;;;;;;1.80;0.43;;;;;;;;;;5135177;27;20023;-61
2024/03/25 04:53:58;;;;;;;0.43;0.13;;;;;;;;;;5154097;27;20075;-61
2024/03/25 04:56:24;;;;;;;0.82;0.22;;;;;;;;;;5152982;27;20533;-61
2024/03/25 04:58:50;;;;;;;0.47;0.20;;;;;;;;;;5144344;27;20024;-61
2024/03/25 05:01:16;;;;;;;0.73;0.30;;;;;;;;;;5149421;27;20417;-61
2024/03/25 05:03:43;;;;;;;0.63;0.03;;;;;;;;;;5153727;27;20476;-61
2024/03/25 05:06:11;;;;;;;0.98;0.20;;;;;;;;;;5152444;27;20050;-61
2024/03/25 05:08:37;;;;;;;0.40;0.20;;;;;;;;;;5138931;27;20027;-61
2024/03/25 05:11:03;;;;;;;0.40;0.10;;;;;;;;;;5152676;27;20027;-61
2024/03/25 05:13:29;;;;;;;1.95;0.20;;;;;;;;;;5135403;27;20023;-61
2024/03/25 05:15:55;;;;;;;1.52;0.45;;;;;;;;;;5150643;27;20022;-61
2024/03/25 05:18:21;;;;;;;1.77;0.63;;;;;;;;;;5127261;27;20122;-61
2024/03/25 05:20:47;;;;;;;2.47;0.68;;;;;;;;;;5152581;27;20031;-61
2024/03/25 05:23:13;;;;;;;3.35;0.63;;;;;;;;;;5145456;27;20106;-61
2024/03/25 05:25:40;;;;;;;1.85;0.52;;;;;;;;;;5148188;27;20037;-61
2024/03/25 05:28:07;;;;;;;0.77;0.50;;;;;;;;;;5142115;27;20035;-61
2024/03/25 05:30:33;;;;;;;3.38;0.70;;;;;;;;;;5143599;27;20495;-62
2024/03/25 05:32:59;;;;;;;2.45;0.68;;;;;;;;;;5152712;27;20042;-61
2024/03/25 05:35:25;;;;;;;1.13;0.40;;;;;;;;;;5149256;27;20361;-61
2024/03/25 05:37:57;;;;;;;1.20;0.40;;;;;;;;;;5128630;27;20054;-61
2024/03/25 05:40:23;;;;;;;1.73;0.25;;;;;;;;;;5144051;27;20035;-61
2024/03/25 05:42:49;;;;;;;0.73;0.40;;;;;;;;;;5151279;27;20026;-61
2024/03/25 05:45:15;;;;;;;0.95;0.50;;;;;;;;;;5153231;27;20023;-62
2024/03/25 05:47:41;;;;;;;0.75;0.40;;;;;;;;;;5150525;27;20059;-61
2024/03/25 05:50:08;;;;;;;0.98;0.20;;;;;;;;;;5146707;27;20133;-61
2024/03/25 05:52:35;;;;;;;0.73;0.43;;;;;;;;;;5143224;27;20763;-61
2024/03/25 05:55:01;;;;;;;0.95;0.40;;;;;;;;;;5157164;27;20109;-61
2024/03/25 05:57:36;;;;;;;0.63;0.40;;;;;;;;;;5137921;27;20091;-61
2024/03/25 06:00:03;;;;;;;0.82;0.60;;;;;;;;;;5153164;27;20026;-61
2024/03/25 06:02:30;;;;;;;0.70;0.20;;;;;;;;;;5156883;27;20049;-61
2024/03/25 06:04:56;;;;;;;2.20;0.50;;;;;;;;;;5147288;27;20091;-61
2024/03/25 06:07:22;;;;;;;1.75;0.35;;;;;;;;;;5156818;27;20106;-61
2024/03/25 06:09:48;;;;;;;0.38;0.20;;;;;;;;;;5148118;27;20380;-61
2024/03/25 06:12:14;;;;;;;2.83;0.50;;;;;;;;;;5154131;27;20391;-61
2024/03/25 06:14:40;;;;;;;0.60;0.30;;;;;;;;;;5156628;27;20019;-61
2024/03/25 06:17:06;;;;;;;2.03;0.45;;;;;;;;;;5145491;27;20054;-61
2024/03/25 06:19:32;;;;;;;2.30;0.40;;;;;;;;;;5150469;27;20038;-61
2024/03/25 06:21:58;;;;;;;1.45;0.30;;;;;;;;;;5149260;27;20038;-61
2024/03/25 06:24:24;;;;;;;1.58;0.57;;;;;;;;;;5137908;27;20022;-61
2024/03/25 06:26:50;;;;;;;2.38;0.80;;;;;;;;;;5156781;27;20026;-61
2024/03/25 06:29:16;;;;;;;1.70;0.77;;;;;;;;;;5155947;27;20019;-61
2024/03/25 06:34:27;;;;;;;1.27;0.75;;;;;;;;;;5151913;27;20049;-61
2024/03/25 06:36:53;;;;;;;2.45;1.05;;;;;;;;;;5156238;27;20389;-61
2024/03/25 06:39:19;;;;;;;5.03;1.00;;;;;;;;;;5133143;27;20027;-61
2024/03/25 06:41:45;;;;;;;5.10;1.20;;;;;;;;;;5142163;27;20031;-61
2024/03/25 06:44:10;;;;;;;2.83;1.43;;;;;;;;;;5148565;27;20521;-61
2024/03/25 06:46:36;;;;;;;6.30;1.30;;;;;;;;;;5137423;27;20038;-61
2024/03/25 06:49:03;;;;;;;4.13;1.50;;;;;;;;;;5149780;27;20034;-61
2024/03/25 06:51:29;;;;;;;4.25;1.10;;;;;;;;;;5136189;27;20038;-61
2024/03/25 06:53:55;;;;;;;4.77;1.53;;;;;;;;;;5142984;27;20026;-61
2024/03/25 06:56:21;;;;;;;2.50;0.93;;;;;;;;;;5137257;27;20083;-61
2024/03/25 06:58:47;;;;;;;2.57;1.10;;;;;;;;;;5155768;27;20332;-61
2024/03/25 07:01:13;;;;;;;2.00;0.98;;;;;;;;;;5155345;27;20039;-62
2024/03/25 07:03:39;;;;;;;2.15;1.00;;;;;;;;;;5153800;27;20026;-62
2024/03/25 07:06:05;;;;;;;3.72;1.10;;;;;;;;;;5145183;27;20457;-62
2024/03/25 07:08:31;;;;;;;3.37;1.33;;;;;;;;;;5150048;27;20057;-62
2024/03/25 07:10:58;;;;;;;2.43;1.30;;;;;;;;;;5152319;27;20030;-62
2024/03/25 07:13:24;;;;;;;1.87;1.10;;;;;;;;;;5151355;27;20479;-60
2024/03/25 07:15:50;;;;;;;4.07;1.07;;;;;;;;;;5132594;27;20023;-60
2024/03/25 07:18:16;;;;;;;3.03;1.23;;;;;;;;;;5152479;27;20027;-60
2024/03/25 07:20:43;;;;;;;4.77;1.30;;;;;;;;;;5148865;27;20042;-61
2024/03/25 07:23:09;;;;;;;5.38;1.60;;;;;;;;;;5150181;27;20041;-60
2024/03/25 07:25:35;;;;;;;2.83;1.07;;;;;;;;;;5154982;27;20187;-61
2024/03/25 07:28:02;;;;;;;1.27;1.17;;;;;;;;;;5155322;27;20019;-61
2024/03/25 07:30:28;;;;;;;3.23;1.70;;;;;;;;;;5150451;27;20110;-61
2024/03/25 07:32:57;;;;;;;2.83;1.53;;;;;;;;;;5152520;27;20088;-61
2024/03/25 07:35:24;;;;;;;3.67;1.70;;;;;;;;;;5149157;27;20122;-61
2024/03/25 07:37:53;;;;;;;3.90;1.63;;;;;;;;;;5139311;27;20396;-60
2024/03/25 07:40:19;;;;;;;4.43;1.80;;;;;;;;;;5145692;27;20110;-60
2024/03/25 07:42:45;;;;;;;6.10;2.22;;;;;;;;;;5146509;27;20474;-60
2024/03/25 07:45:11;;;;;;;5.15;1.90;;;;;;;;;;5129823;27;21370;-60
2024/03/25 07:47:37;;;;;;;3.05;1.95;;;;;;;;;;5139621;27;20119;-61
2024/03/25 07:50:05;;;;;;;7.03;2.58;;;;;;;;;;5135663;27;20458;-60
2024/03/25 07:52:31;;;;;;;3.77;2.13;;;;;;;;;;5135986;27;20076;-61
2024/03/25 07:54:57;;;;;;;3.23;1.90;;;;;;;;;;5147731;27;20034;-61
2024/03/25 07:57:23;;;;;;;4.63;2.40;;;;;;;;;;5146489;27;20366;-61
2024/03/25 07:59:49;;;;;;;8.98;2.08;;;;;;;;;;5136258;27;20113;-62
2024/03/25 08:02:16;;;;;;;5.03;1.60;;;;;;;;;;5144176;27;20096;-63
2024/03/25 08:04:42;;;;;;;4.28;1.58;;;;;;;;;;5139003;27;20030;-64
2024/03/25 08:07:08;;;;;;;4.68;2.10;;;;;;;;;;5133699;27;20060;-63
2024/03/25 08:09:34;;;;;;;3.75;1.65;;;;;;;;;;5147427;27;20027;-63
2024/03/25 08:12:00;;;;;;;3.28;1.55;;;;;;;;;;5154471;27;20027;-63
2024/03/25 08:14:26;;;;;;;2.78;1.85;;;;;;;;;;5154805;27;20023;-64
2024/03/25 08:16:52;;;;;;;2.55;1.35;;;;;;;;;;5153223;27;20226;-63
2024/03/25 08:19:18;;;;;;;3.15;1.98;;;;;;;;;;5154488;27;20034;-63
2024/03/25 08:21:44;;;;;;;4.40;2.10;;;;;;;;;;5154033;27;20068;-63
2024/03/25 08:24:10;;;;;;;2.25;1.58;;;;;;;;;;5135758;27;20026;-63
2024/03/25 08:26:36;;;;;;;3.58;1.55;;;;;;;;;;5135541;27;20033;-63
2024/03/25 08:29:03;;;;;;;2.85;1.30;;;;;;;;;;5135427;27;20018;-63
2024/03/25 08:31:29;;;;;;;2.15;1.70;;;;;;;;;;5135428;27;20030;-64
2024/03/25 08:33:56;;;;;;;8.32;1.70;;;;;;;;;;5154140;27;20025;-64
2024/03/25 08:36:22;;;;;;;5.40;1.95;;;;;;;;;;5154251;27;20114;-64
2024/03/25 08:38:48;;;;;;;4.32;2.15;;;;;;;;;;5153836;27;20331;-64
2024/03/25 08:41:15;;;;;;;5.05;2.05;;;;;;;;;;5151723;27;20043;-63
2024/03/25 08:43:41;;;;;;;5.18;2.47;;;;;;;;;;5153839;27;20105;-64
2024/03/25 08:46:06;;;;;;;8.88;3.90;;;;;;;;;;5153796;27;20073;-63
2024/03/25 08:48:32;;;;;;;6.30;3.28;;;;;;;;;;5153820;27;20026;-63
2024/03/25 08:50:58;;;;;;;5.35;2.50;;;;;;;;;;5153850;27;20046;-63
2024/03/25 08:53:24;;;;;;;9.27;2.60;;;;;;;;;;5153522;27;20179;-63
2024/03/25 08:55:50;;;;;;;3.22;1.45;;;;;;;;;;5153535;27;20135;-64
2024/03/25 08:58:17;;;;;;;2.83;1.10;;;;;;;;;;5134964;27;20019;-64
2024/03/25 09:00:43;;;;;;;4.18;1.25;;;;;;;;;;5153824;27;20111;-64
2024/03/25 09:03:10;;;;;;;1.48;1.17;;;;;;;;;;5153951;27;20023;-64
2024/03/25 09:05:38;;;;;;;2.42;1.67;;;;;;;;;;5153954;27;20015;-64
2024/03/25 09:08:05;;;;;;;5.30;2.38;;;;;;;;;;5153465;27;20067;-64
2024/03/25 09:13:16;;;;;;;4.53;2.15;;;;;;;;;;5153637;27;20076;-64
2024/03/25 09:15:42;;;;;;;6.10;2.25;;;;;;;;;;5153808;27;20080;-64
2024/03/25 09:18:08;;;;;;;5.63;1.83;;;;;;;;;;5153330;27;20026;-64
2024/03/25 09:20:34;;;;;;;2.88;1.88;;;;;;;;;;5134744;27;20022;-64
2024/03/25 09:23:00;;;;;;;4.05;1.67;;;;;;;;;;5153469;27;20025;-64
2024/03/25 09:25:27;;;;;;;4.80;1.90;;;;;;;;;;5153771;27;20039;-64
2024/03/25 09:27:53;;;;;;;2.25;1.80;;;;;;;;;;5155493;27;20027;-64
2024/03/25 09:30:19;;;;;;;4.85;1.70;;;;;;;;;;5157281;27;20027;-64
2024/03/25 09:32:45;;;;;;;3.20;2.40;;;;;;;;;;5157008;27;20121;-64
2024/03/25 09:35:11;;;;;;;3.30;1.95;;;;;;;;;;5157121;27;20475;-64
2024/03/25 09:37:38;;;;;;;4.82;2.28;;;;;;;;;;5137651;27;20401;-64
2024/03/25 09:40:07;;;;;;;4.00;2.03;;;;;;;;;;5157111;27;20019;-65
2024/03/25 09:42:53;;;;;;;3.85;2.75;;;;;;;;;;5138116;27;20042;-64
2024/03/25 09:45:20;;;;;;;2.97;1.80;;;;;;;;;;5156227;27;20492;-63
2024/03/25 09:47:47;;;;;;;1.88;1.70;;;;;;;;;;5156655;27;20105;-63
2024/03/25 09:50:19;;;;;;;4.03;1.67;;;;;;;;;;5156773;27;20031;-63
2024/03/25 09:52:45;;;;;;;2.45;1.70;;;;;;;;;;5155832;27;20110;-63
2024/03/25 09:55:11;;;;;;;3.78;2.03;;;;;;;;;;5156702;27;20106;-63
2024/03/25 09:57:38;;;;;;;3.65;2.70;;;;;;;;;;5156270;27;20031;-63
2024/03/25 10:00:04;;;;;;;3.60;2.92;;;;;;;;;;5148416;27;20019;-63
2024/03/25 10:02:31;;;;;;;5.38;3.22;;;;;;;;;;5117259;27;20046;-64
2024/03/25 10:04:57;;;;;;;5.72;3.30;;;;;;;;;;5134513;27;20075;-63
2024/03/25 10:07:23;;;;;;;5.97;2.67;;;;;;;;;;5135929;27;20031;-63
2024/03/25 10:09:50;;;;;;;5.00;2.92;;;;;;;;;;5135676;27;20026;-64
2024/03/25 10:12:16;;;;;;;4.75;3.10;;;;;;;;;;5134169;27;20026;-64
2024/03/25 10:14:42;;;;;;;6.38;3.45;;;;;;;;;;5155762;27;20129;-64
2024/03/25 10:17:08;;;;;;;4.65;3.20;;;;;;;;;;5147726;27;20156;-64
2024/03/25 10:19:34;;;;;;;3.00;2.70;;;;;;;;;;5116943;27;20019;-64
2024/03/25 10:22:04;;;;;;;3.42;3.13;;;;;;;;;;5135862;27;20031;-64
2024/03/25 10:24:39;;;;;;;2.88;2.60;;;;;;;;;;5135424;27;20041;-63
2024/03/25 10:27:06;;;;;;;5.20;2.20;;;;;;;;;;5148670;27;20114;-63
2024/03/25 10:29:32;;;;;;;4.22;3.08;;;;;;;;;;5156444;27;20057;-63
2024/03/25 10:32:01;;;;;;;4.10;3.70;;;;;;;;;;5155725;27;20050;-63
2024/03/25 10:34:27;;;;;;;5.97;3.03;;;;;;;;;;5156242;27;20030;-63
2024/03/25 10:36:56;;;;;;;5.15;3.20;;;;;;;;;;5156151;27;20103;-63
2024/03/25 10:39:27;;;;;;;3.83;3.38;;;;;;;;;;5154466;27;20471;-63
2024/03/25 10:42:00;;;;;;;5.00;3.35;;;;;;;;;;5149504;27;20042;-63
2024/03/25 10:44:26;;;;;;;4.90;3.35;;;;;;;;;;5135885;27;20023;-63
2024/03/25 10:46:56;;;;;;;3.83;2.72;;;;;;;;;;5155199;27;20121;-63
2024/03/25 10:49:25;;;;;;;3.90;3.03;;;;;;;;;;5155670;27;20167;-63
2024/03/25 10:51:52;;;;;;;5.80;3.03;;;;;;;;;;5136860;27;20039;-63
2024/03/25 10:54:18;;;;;;;2.70;1.92;;;;;;;;;;5155609;27;20382;-63
2024/03/25 10:56:44;;;;;;;3.10;1.90;;;;;;;;;;5136502;27;20472;-63
2024/03/25 10:59:11;;;;;;;5.78;2.60;;;;;;;;;;5155345;27;20023;-64
2024/03/25 11:01:37;;;;;;;3.97;2.63;;;;;;;;;;5155527;27;20026;-64
2024/03/25 11:04:05;;;;;;;3.13;2.10;;;;;;;;;;5136595;27;20094;-63
2024/03/25 11:06:32;;;;;;;6.85;1.95;;;;;;;;;;5155208;27;20511;-63
2024/03/25 11:08:58;;;;;;;2.20;2.00;;;;;;;;;;5155475;27;20030;-64
2024/03/25 11:11:24;;;;;;;2.45;1.50;;;;;;;;;;5155680;27;20022;-64
2024/03/25 11:13:50;;;;;;;2.80;1.90;;;;;;;;;;5155228;27;20376;-64
2024/03/25 11:16:27;;;;;;;3.35;1.67;;;;;;;;;;5155476;27;20035;-64
2024/03/25 11:18:53;;;;;;;3.30;1.90;;;;;;;;;;5141487;27;20057;-64
2024/03/25 11:21:25;;;;;;;1.50;1.40;;;;;;;;;;5155217;27;20086;-64
2024/03/25 11:23:51;;;;;;;1.83;1.63;;;;;;;;;;5155666;27;20023;-64
2024/03/25 11:26:30;;;;;;;3.65;1.63;;;;;;;;;;5155510;27;20487;-64
2024/03/25 11:29:02;;;;;;;2.75;1.55;;;;;;;;;;5155226;27;20452;-64
2024/03/25 11:31:28;;;;;;;3.20;1.40;;;;;;;;;;5144545;27;20053;-64
2024/03/25 11:33:56;;;;;;;1.88;1.67;;;;;;;;;;5136087;27;20023;-64
2024/03/25 11:36:25;;;;;;;1.25;1.13;;;;;;;;;;5152400;27;20060;-63
2024/03/25 11:39:05;;;;;;;1.38;1.20;;;;;;;;;;5148423;27;20019;-64
2024/03/25 11:41:35;;;;;;;1.92;1.08;;;;;;;;;;5146360;27;20445;-63
2024/03/25 11:44:01;;;;;;;4.13;2.00;;;;;;;;;;5152231;27;20101;-64
2024/03/25 11:46:27;;;;;;;1.55;1.27;;;;;;;;;;5154225;27;20069;-63
2024/03/25 11:48:53;;;;;;;3.47;1.45;;;;;;;;;;5149310;27;20022;-63
2024/03/25 11:51:20;;;;;;;5.45;1.75;;;;;;;;;;5134231;27;20027;-63
2024/03/25 11:54:15;;;;;;;1.73;1.30;;;;;;;;;;5154884;27;20027;-64
2024/03/25 11:56:42;;;;;;;2.03;1.42;;;;;;;;;;5154046;27;20471;-64
2024/03/25 11:59:09;;;;;;;2.80;1.20;;;;;;;;;;5154664;27;20548;-64
2024/03/25 12:01:35;;;;;;;3.72;1.13;;;;;;;;;;5154737;27;20041;-64
2024/03/25 12:04:11;;;;;;;3.03;1.25;;;;;;;;;;5154474;27;20054;-66
2024/03/25 12:06:37;;;;;;;2.70;1.48;;;;;;;;;;5135705;27;20149;-64
2024/03/25 12:11:48;;;;;;;1.60;1.17;;;;;;;;;;5134219;27;20057;-65
2024/03/25 12:14:16;;;;;;;1.85;1.10;;;;;;;;;;5133893;27;20031;-64
2024/03/25 12:16:42;;;;;;;1.92;1.23;;;;;;;;;;5133488;27;20027;-64
2024/03/25 12:19:08;;;;;;;2.92;1.65;;;;;;;;;;5134647;27;20027;-64
2024/03/25 12:21:34;;;;;;;2.03;1.38;;;;;;;;;;5154477;27;20035;-63
2024/03/25 12:24:00;;;;;;;2.75;1.60;;;;;;;;;;5154304;27;20015;-65
2024/03/25 12:26:26;;;;;;;1.65;0.90;;;;;;;;;;5149679;27;20030;-64
2024/03/25 12:28:53;;;;;;;5.20;1.25;;;;;;;;;;5133464;27;20027;-63
2024/03/25 12:31:19;;;;;;;6.82;1.48;;;;;;;;;;5114864;27;20023;-63
2024/03/25 12:33:45;;;;;;;2.53;1.27;;;;;;;;;;5133287;27;20126;-63
2024/03/25 12:36:14;;;;;;;2.33;1.25;;;;;;;;;;5133665;27;20020;-64
2024/03/25 12:38:40;;;;;;;2.50;1.67;;;;;;;;;;5154295;27;20125;-64
2024/03/25 12:41:09;;;;;;;1.42;1.10;;;;;;;;;;5153722;27;20082;-64
2024/03/25 12:43:36;;;;;;;1.60;1.50;;;;;;;;;;5147234;27;20019;-64
2024/03/25 12:46:03;;;;;;;4.03;1.38;;;;;;;;;;5135307;27;20023;-63
2024/03/25 12:48:30;;;;;;;1.33;1.23;;;;;;;;;;5153996;27;20023;-64
2024/03/25 12:50:56;;;;;;;1.48;1.38;;;;;;;;;;5134863;27;20381;-63
2024/03/25 12:53:22;;;;;;;1.73;1.05;;;;;;;;;;5153549;27;20102;-63
2024/03/25 12:55:48;;;;;;;3.35;1.17;;;;;;;;;;5135110;27;20015;-63
2024/03/25 12:58:14;;;;;;;3.42;1.17;;;;;;;;;;5153582;27;20030;-64
2024/03/25 13:00:41;;;;;;;1.48;1.38;;;;;;;;;;5153473;27;20080;-64
2024/03/25 13:03:08;;;;;;;1.42;1.33;;;;;;;;;;5153341;27;20105;-64
2024/03/25 13:05:34;;;;;;;3.00;1.90;;;;;;;;;;5153878;27;20023;-64
2024/03/25 13:08:00;;;;;;;3.80;2.33;;;;;;;;;;5153514;27;20029;-64
2024/03/25 13:10:26;;;;;;;1.80;1.70;;;;;;;;;;5153594;27;20023;-64
2024/03/25 13:12:53;;;;;;;1.60;1.50;;;;;;;;;;5153797;27;20081;-64
2024/03/25 13:15:19;;;;;;;1.52;1.42;;;;;;;;;;5153774;27;20015;-64
2024/03/25 13:17:45;;;;;;;1.67;1.52;;;;;;;;;;5153491;27;20595;-64
2024/03/25 13:20:11;;;;;;;1.77;1.40;;;;;;;;;;5134981;27;20019;-65
2024/03/25 13:22:38;;;;;;;2.42;1.63;;;;;;;;;;5153469;27;20023;-63
2024/03/25 13:25:05;;;;;;;2.83;1.60;;;;;;;;;;5153818;27;20025;-64
2024/03/25 13:27:31;;;;;;;1.98;1.52;;;;;;;;;;5153343;27;20031;-63
2024/03/25 13:29:57;;;;;;;1.65;1.38;;;;;;;;;;5134934;27;20491;-63
2024/03/25 13:32:23;;;;;;;3.72;1.40;;;;;;;;;;5131289;28;20058;-63
2024/03/25 13:34:50;;;;;;;1.65;1.40;;;;;;;;;;5132419;28;20015;-63
2024/03/25 13:37:16;;;;;;;3.33;1.40;;;;;;;;;;5132809;27;20026;-63
2024/03/25 13:39:42;;;;;;;1.33;1.23;;;;;;;;;;5132299;28;20018;-63
2024/03/25 13:42:08;;;;;;;3.40;2.13;;;;;;;;;;5131279;28;20433;-63
2024/03/25 13:44:34;;;;;;;1.23;1.13;;;;;;;;;;5132576;28;20039;-64
2024/03/25 13:47:00;;;;;;;2.20;1.25;;;;;;;;;;5132619;27;20026;-64
2024/03/25 13:49:26;;;;;;;1.98;1.20;;;;;;;;;;5132862;28;20019;-64
2024/03/25 13:51:58;;;;;;;1.65;1.10;;;14.40;99.90;;;;;;5131204;28;20541;-64
2024/03/25 13:54:24;;;;;;;3.60;1.55;;;21.20;99.90;;;;;;5132680;27;20038;-64
2024/03/25 13:56:50;;;;;;;4.97;1.50;;;20.80;99.90;;;;;;5131103;28;20027;-64
2024/03/25 13:59:15;;;;;;;2.28;1.50;;;20.70;99.90;;;;;;5132552;28;20418;-64
2024/03/25 14:01:41;;;;;;;2.50;1.42;;;;;;;;;;5131301;28;20032;-64
2024/03/25 14:04:07;;;;;;;1.67;1.48;;;;;;;;;;5132707;28;20372;-64
2024/03/25 14:06:33;;;;;;;0.93;0.82;;;;;;;;;;5132403;28;20027;-64
2024/03/25 14:08:59;;;;;;;2.42;1.10;;;20.50;99.90;;;;;;5132319;28;20019;-64
2024/03/25 14:11:26;;;;;;;2.20;0.90;;;20.00;99.90;;;;;;5131186;28;20574;-64
2024/03/25 14:13:52;;;;;;;1.10;0.98;;;19.80;99.90;;;;;;5134294;27;20023;-64
2024/03/25 14:16:17;;;;;;;2.60;0.73;;;19.90;99.90;;;;;;5136433;27;20313;-64
2024/03/25 14:18:43;;;;;;;2.85;0.90;;;19.90;99.90;;;;;;5136061;27;20030;-63
2024/03/25 14:21:09;;;;;;;4.45;0.90;;;19.80;99.90;;;;;;5135936;27;20039;-64
2024/03/25 14:23:34;;;;;;;2.67;1.30;;;19.80;99.90;;;;;;5135960;27;20035;-64
2024/03/25 14:26:00;;;;;;;4.28;0.82;;;19.70;99.90;;;;;;5135939;27;20023;-63
2024/03/25 14:28:26;;;;;;;2.53;0.68;;;19.60;99.90;;;;;;5136214;27;20045;-64
2024/03/25 14:30:51;;;;;;;1.08;0.80;;;19.70;99.90;;;;;;5135843;27;20315;-64
2024/03/25 14:33:17;;;;;;;2.30;1.05;;;19.70;99.90;;;;;;5151502;27;20039;-63
2024/03/25 14:35:43;;;;;;;1.70;0.88;;;19.60;99.90;;;;;;5156629;27;20054;-63
2024/03/25 14:38:08;;;;;;;2.38;0.88;;;19.60;99.90;;;;;;5156629;27;20015;-64
2024/03/25 14:40:40;;;;;;;2.05;1.10;;;19.50;99.90;;;;;;5156313;27;20051;-64
2024/03/25 14:43:06;;;;;;;3.03;1.60;;;19.60;99.90;;;;;;5154481;27;20035;-64
2024/03/25 14:45:32;;;;;;;2.88;1.17;;;19.60;99.90;;;;;;5156459;27;20026;-63
2024/03/25 14:47:58;;;;;;;2.13;0.85;;;19.80;99.90;;;;;;5137294;27;20018;-63
2024/03/25 14:50:23;;;;;;;4.28;1.08;;;19.80;99.90;;;;;;5137654;27;20453;-63